createdAt,value
2022-11-25T00:01:16.055Z,5.30
2022-11-25T00:03:43.967Z,5.10
2022-11-25T00:06:11.914Z,4.80
2022-11-25T00:08:39.263Z,4.60
2022-11-25T00:11:06.914Z,5.23
2022-11-25T00:13:34.225Z,4.83
2022-11-25T00:16:02.864Z,5.07
2022-11-25T00:18:29.776Z,5.40
2022-11-25T00:20:56.427Z,4.57
2022-11-25T00:23:23.189Z,4.17
2022-11-25T00:25:50.047Z,4.23
2022-11-25T00:28:18.528Z,4.63
2022-11-25T00:30:45.371Z,4.73
2022-11-25T00:33:12.055Z,5.20
2022-11-25T00:35:38.737Z,5.00
2022-11-25T00:38:05.382Z,4.17
2022-11-25T00:40:32.041Z,4.63
2022-11-25T00:43:17.141Z,4.60
2022-11-25T00:45:43.860Z,4.30
2022-11-25T00:48:10.611Z,4.10
2022-11-25T00:50:37.284Z,4.70
2022-11-25T00:53:03.925Z,4.63
2022-11-25T00:55:50.653Z,4.73
2022-11-25T00:58:17.316Z,5.67
2022-11-25T01:00:44.009Z,4.30
2022-11-25T01:03:11.297Z,4.83
2022-11-25T01:05:37.940Z,4.90
2022-11-25T01:08:04.780Z,4.67
2022-11-25T01:10:31.415Z,5.30
2022-11-25T01:12:59.468Z,5.10
2022-11-25T01:15:26.181Z,7.37
2022-11-25T01:17:53.176Z,9.13
2022-11-25T01:20:19.850Z,11.53
2022-11-25T01:22:46.505Z,12.33
2022-11-25T01:25:13.251Z,14.20
2022-11-25T01:27:42.934Z,15.00
2022-11-25T01:30:10.024Z,8.53
2022-11-25T01:32:36.776Z,7.30
2022-11-25T01:35:03.775Z,6.00
2022-11-25T01:37:31.087Z,5.70
2022-11-25T01:39:57.776Z,5.30
2022-11-25T01:42:29.438Z,6.70
2022-11-25T01:45:32.845Z,8.47
2022-11-25T01:48:06.414Z,7.50
2022-11-25T01:50:35.223Z,7.70
2022-11-25T01:53:06.271Z,8.30
2022-11-25T01:55:36.126Z,8.73
2022-11-25T01:58:17.436Z,7.00
2022-11-25T02:00:51.164Z,4.73
2022-11-25T02:03:25.436Z,4.10
2022-11-25T02:06:25.646Z,6.20
2022-11-25T02:08:57.211Z,5.13
2022-11-25T02:11:26.781Z,4.10
2022-11-25T02:13:54.119Z,3.07
2022-11-25T02:16:20.922Z,3.50
2022-11-25T02:18:49.943Z,3.63
2022-11-25T02:21:45.313Z,3.90
2022-11-25T02:24:21.761Z,3.47
2022-11-25T02:26:48.639Z,3.63
2022-11-25T02:29:15.704Z,3.57
2022-11-25T02:31:44.232Z,4.90
2022-11-25T02:34:11.199Z,4.57
2022-11-25T02:36:37.824Z,4.17
2022-11-25T02:39:04.892Z,3.17
2022-11-25T02:41:40.816Z,3.87
2022-11-25T02:44:08.324Z,3.20
2022-11-25T02:46:35.458Z,2.90
2022-11-25T02:49:10.786Z,3.20
2022-11-25T02:51:41.848Z,2.90
2022-11-25T02:54:09.685Z,2.27
2022-11-25T02:56:37.199Z,2.13
2022-11-25T02:59:04.090Z,2.37
2022-11-25T03:01:31.861Z,2.00
2022-11-25T03:03:59.276Z,2.60
2022-11-25T03:06:27.789Z,2.30
2022-11-25T03:08:54.673Z,2.33
2022-11-25T03:11:41.692Z,3.03
2022-11-25T03:14:08.878Z,2.90
2022-11-25T03:16:35.542Z,2.13
2022-11-25T03:19:04.247Z,2.37
2022-11-25T03:21:31.169Z,2.77
2022-11-25T03:23:58.040Z,2.67
2022-11-25T03:26:26.098Z,3.10
2022-11-25T03:28:52.883Z,3.20
2022-11-25T03:31:19.582Z,3.77
2022-11-25T03:33:46.326Z,3.63
2022-11-25T03:36:13.005Z,3.67
2022-11-25T03:38:39.884Z,3.20
2022-11-25T03:41:06.948Z,3.30
2022-11-25T03:43:35.421Z,3.50
2022-11-25T03:46:02.230Z,3.20
2022-11-25T03:48:29.031Z,2.90
2022-11-25T03:50:56.048Z,2.97
2022-11-25T03:53:24.640Z,3.20
2022-11-25T03:55:51.553Z,2.87
2022-11-25T03:58:20.993Z,3.03
2022-11-25T04:00:49.865Z,2.67
2022-11-25T04:03:17.291Z,2.97
2022-11-25T04:05:44.206Z,2.77
2022-11-25T04:08:11.938Z,2.73
2022-11-25T04:10:39.072Z,3.00
2022-11-25T04:13:06.613Z,2.50
2022-11-25T04:15:37.322Z,2.83
2022-11-25T04:18:04.964Z,2.33
2022-11-25T04:20:32.999Z,2.67
2022-11-25T04:23:03.884Z,2.30
2022-11-25T04:25:33.683Z,2.77
2022-11-25T04:28:00.997Z,3.00
2022-11-25T04:30:32.510Z,2.20
2022-11-25T04:33:00.909Z,2.63
2022-11-25T04:35:27.738Z,2.57
2022-11-25T04:37:55.258Z,2.30
2022-11-25T04:40:23.503Z,2.97
2022-11-25T04:43:04.672Z,3.20
2022-11-25T04:45:51.836Z,2.70
2022-11-25T04:48:21.095Z,2.13
2022-11-25T04:50:48.150Z,2.03
2022-11-25T04:53:14.928Z,2.30
2022-11-25T04:55:42.086Z,2.23
2022-11-25T04:58:14.579Z,2.63
2022-11-25T05:00:42.019Z,2.57
2022-11-25T05:03:10.500Z,2.30
2022-11-25T05:05:39.475Z,2.00
2022-11-25T05:08:06.373Z,2.30
2022-11-25T05:10:33.127Z,2.27
2022-11-25T05:13:00.243Z,2.17
2022-11-25T05:15:27.019Z,2.30
2022-11-25T05:17:54.669Z,1.70
2022-11-25T05:20:36.571Z,1.90
2022-11-25T05:23:03.261Z,2.03
2022-11-25T05:25:30.216Z,1.90
2022-11-25T05:28:15.700Z,1.67
2022-11-25T05:30:45.156Z,2.40
2022-11-25T05:33:11.953Z,2.77
2022-11-25T05:35:38.665Z,2.87
2022-11-25T05:38:05.375Z,2.47
2022-11-25T05:40:33.362Z,7.93
2022-11-25T05:43:07.726Z,8.27
2022-11-25T05:45:39.197Z,3.30
2022-11-25T05:48:07.941Z,2.83
2022-11-25T05:50:34.919Z,3.80
2022-11-25T05:53:17.198Z,3.10
2022-11-25T05:55:44.728Z,2.77
2022-11-25T05:58:23.800Z,3.20
2022-11-25T06:00:53.722Z,3.43
2022-11-25T06:03:29.281Z,3.77
2022-11-25T06:05:57.313Z,3.47
2022-11-25T06:08:24.145Z,3.67
2022-11-25T06:10:51.081Z,2.87
2022-11-25T06:13:18.552Z,2.53
2022-11-25T06:15:45.523Z,2.40
2022-11-25T06:18:16.928Z,2.20
2022-11-25T06:20:44.011Z,2.70
2022-11-25T06:23:10.841Z,2.47
2022-11-25T06:25:38.523Z,2.40
2022-11-25T06:28:13.787Z,2.90
2022-11-25T06:30:44.817Z,3.00
2022-11-25T06:33:24.480Z,2.70
2022-11-25T06:35:51.260Z,3.23
2022-11-25T06:38:18.131Z,3.50
2022-11-25T06:40:44.797Z,3.63
2022-11-25T06:43:11.502Z,3.73
2022-11-25T06:45:38.163Z,4.17
2022-11-25T06:48:05.291Z,4.27
2022-11-25T06:50:32.003Z,4.63
2022-11-25T06:53:01.184Z,3.97
2022-11-25T06:55:27.883Z,4.33
2022-11-25T06:58:08.432Z,4.57
2022-11-25T07:00:41.189Z,4.10
2022-11-25T07:03:07.861Z,3.93
2022-11-25T07:05:34.569Z,3.70
2022-11-25T07:08:01.347Z,3.80
2022-11-25T07:10:28.017Z,3.80
2022-11-25T07:12:54.716Z,4.40
2022-11-25T07:15:21.464Z,3.63
2022-11-25T07:17:48.104Z,3.97
2022-11-25T07:20:14.805Z,4.70
2022-11-25T07:22:41.614Z,4.20
2022-11-25T07:25:09.335Z,4.03
2022-11-25T07:27:35.977Z,4.97
2022-11-25T07:30:41.594Z,4.80
2022-11-25T07:32:49.393Z,4.80
2022-11-25T07:35:16.178Z,4.40
2022-11-25T07:37:42.902Z,3.97
2022-11-25T07:40:10.004Z,4.07
2022-11-25T07:42:36.661Z,4.13
2022-11-25T07:45:04.546Z,4.43
2022-11-25T07:47:40.670Z,3.87
2022-11-25T07:50:08.273Z,4.00
2022-11-25T07:52:37.872Z,4.90
2022-11-25T07:55:04.810Z,6.63
2022-11-25T07:57:31.553Z,5.33
2022-11-25T07:59:58.227Z,4.70
2022-11-25T08:02:24.964Z,3.90
2022-11-25T08:04:51.713Z,3.73
2022-11-25T08:07:18.451Z,3.90
2022-11-25T08:09:45.142Z,4.77
2022-11-25T08:12:11.812Z,5.00
2022-11-25T08:14:44.867Z,4.00
2022-11-25T08:17:12.134Z,4.67
2022-11-25T08:19:40.367Z,3.93
2022-11-25T08:22:07.036Z,4.53
2022-11-25T08:24:33.736Z,4.13
2022-11-25T08:27:01.812Z,4.07
2022-11-25T08:29:28.524Z,3.33
2022-11-25T08:31:55.189Z,3.50
2022-11-25T08:34:24.466Z,3.27
2022-11-25T08:36:56.324Z,3.43
2022-11-25T08:42:09.854Z,3.40
2022-11-25T08:44:36.639Z,3.43
2022-11-25T08:47:03.355Z,4.97
2022-11-25T08:49:31.198Z,4.27
2022-11-25T08:52:00.549Z,4.37
2022-11-25T08:54:27.241Z,4.27
2022-11-25T08:56:53.919Z,4.30
2022-11-25T08:59:22.725Z,3.80
2022-11-25T09:01:49.407Z,3.63
2022-11-25T09:04:16.167Z,4.43
2022-11-25T09:06:42.851Z,3.33
2022-11-25T09:09:09.601Z,3.40
2022-11-25T09:11:36.511Z,4.80
2022-11-25T09:14:03.320Z,5.77
2022-11-25T09:16:30.131Z,4.07
2022-11-25T09:18:56.894Z,4.30
2022-11-25T09:21:24.814Z,3.37
2022-11-25T09:23:53.937Z,2.97
2022-11-25T09:26:26.732Z,3.03
2022-11-25T09:28:54.277Z,2.70
2022-11-25T09:31:21.591Z,2.60
2022-11-25T09:33:49.005Z,2.40
2022-11-25T09:36:17.418Z,2.40
2022-11-25T09:38:44.732Z,2.70
2022-11-25T09:42:16.804Z,2.90
2022-11-25T09:45:05.222Z,2.60
2022-11-25T09:47:54.221Z,2.30
2022-11-25T09:51:02.830Z,2.63
2022-11-25T09:53:35.353Z,3.03
2022-11-25T09:56:29.902Z,3.20
2022-11-25T09:59:29.559Z,2.80
2022-11-25T10:02:02.469Z,3.07
2022-11-25T10:04:46.749Z,3.17
2022-11-25T10:07:22.819Z,3.03
2022-11-25T10:09:49.562Z,3.50
2022-11-25T10:12:24.981Z,3.43
2022-11-25T10:15:03.838Z,4.10
2022-11-25T10:17:53.313Z,4.30
2022-11-25T10:20:33.727Z,4.30
2022-11-25T10:23:04.524Z,3.63
2022-11-25T10:25:37.440Z,3.20
2022-11-25T10:28:20.593Z,3.57
2022-11-25T10:31:05.922Z,3.40
2022-11-25T10:33:43.976Z,3.20
2022-11-25T10:36:24.288Z,3.40
2022-11-25T10:39:02.638Z,3.77
2022-11-25T10:41:37.001Z,3.23
2022-11-25T10:44:03.975Z,3.27
2022-11-25T10:47:12.211Z,3.40
2022-11-25T10:50:01.350Z,3.00
2022-11-25T10:52:42.285Z,3.33
2022-11-25T10:55:25.418Z,3.27
2022-11-25T10:57:53.145Z,3.20
2022-11-25T11:00:38.255Z,3.23
2022-11-25T11:03:16.451Z,3.30
2022-11-25T11:05:49.876Z,3.33
2022-11-25T11:08:18.386Z,3.07
2022-11-25T11:10:46.860Z,3.03
2022-11-25T11:13:30.096Z,2.93
2022-11-25T11:15:57.395Z,3.43
2022-11-25T11:18:39.146Z,3.80
2022-11-25T11:21:08.472Z,3.07
2022-11-25T11:23:50.510Z,3.27
2022-11-25T11:26:30.008Z,3.50
2022-11-25T11:28:59.470Z,3.40
2022-11-25T11:31:41.757Z,3.30
2022-11-25T11:34:42.642Z,3.50
2022-11-25T11:37:35.125Z,3.23
2022-11-25T11:40:21.397Z,3.30
2022-11-25T11:43:06.433Z,3.10
2022-11-25T11:46:06.249Z,3.90
2022-11-25T11:49:01.589Z,3.33
2022-11-25T11:51:43.620Z,3.47
2022-11-25T11:54:17.888Z,3.30
2022-11-25T11:56:55.095Z,2.60
2022-11-25T11:59:55.340Z,2.23
2022-11-25T12:02:22.156Z,2.90
2022-11-25T12:04:57.881Z,2.10
2022-11-25T12:07:34.151Z,2.47
2022-11-25T12:10:16.654Z,2.23
2022-11-25T12:12:52.453Z,2.33
2022-11-25T12:15:43.920Z,2.00
2022-11-25T12:18:37.420Z,2.27
2022-11-25T12:21:12.700Z,2.67
2022-11-25T12:23:50.982Z,2.30
2022-11-25T12:26:59.883Z,2.10
2022-11-25T12:29:48.013Z,2.90
2022-11-25T12:32:52.504Z,3.13
2022-11-25T12:35:37.868Z,2.27
2022-11-25T12:38:04.469Z,1.90
2022-11-25T12:40:42.822Z,7.77
2022-11-25T12:43:55.155Z,3.33
2022-11-25T12:46:37.609Z,3.33
2022-11-25T12:49:10.183Z,2.20
2022-11-25T12:51:51.380Z,2.37
2022-11-25T12:54:33.841Z,1.80
2022-11-25T12:57:26.149Z,4.20
2022-11-25T13:00:39.245Z,1.50
2022-11-25T13:03:12.291Z,1.53
2022-11-25T13:05:49.527Z,1.60
2022-11-25T13:08:43.831Z,1.80
2022-11-25T13:11:41.657Z,7.20
2022-11-25T13:14:40.301Z,1.90
2022-11-25T13:17:12.065Z,2.63
2022-11-25T13:19:39.046Z,2.33
2022-11-25T13:22:26.984Z,1.70
2022-11-25T13:24:53.950Z,1.80
2022-11-25T13:27:36.002Z,2.17
2022-11-25T13:30:03.968Z,1.93
2022-11-25T13:32:38.913Z,1.63
2022-11-25T13:35:26.640Z,1.70
2022-11-25T13:37:53.416Z,2.07
2022-11-25T13:40:20.119Z,1.57
2022-11-25T13:42:47.012Z,1.60
2022-11-25T13:45:34.325Z,1.70
2022-11-25T13:48:15.156Z,2.17
2022-11-25T13:51:09.490Z,1.80
2022-11-25T13:53:34.128Z,1.93
2022-11-25T13:56:25.304Z,2.57
2022-11-25T13:59:10.310Z,2.00
2022-11-25T14:01:55.383Z,1.80
2022-11-25T14:04:45.626Z,1.53
2022-11-25T14:07:27.670Z,2.20
2022-11-25T14:10:07.858Z,1.93
2022-11-25T14:12:49.787Z,1.73
2022-11-25T14:15:53.219Z,1.70
2022-11-25T14:21:39.373Z,1.73
2022-11-25T14:24:24.915Z,1.73
2022-11-25T14:26:52.817Z,1.70
2022-11-25T14:29:40.061Z,1.77
2022-11-25T14:32:27.713Z,1.67
2022-11-25T14:35:06.807Z,2.00
2022-11-25T14:37:57.783Z,1.70
2022-11-25T14:40:51.604Z,1.93
2022-11-25T14:43:24.133Z,2.00
2022-11-25T14:46:11.628Z,2.47
2022-11-25T14:48:38.652Z,3.53
2022-11-25T14:51:17.877Z,4.87
2022-11-25T14:53:48.569Z,4.10
2022-11-25T14:56:26.818Z,5.03
2022-11-25T14:58:55.714Z,3.00
2022-11-25T15:01:30.512Z,4.20
2022-11-25T15:04:12.357Z,2.90
2022-11-25T15:06:42.860Z,3.07
2022-11-25T15:09:38.020Z,2.87
2022-11-25T15:12:15.172Z,3.13
2022-11-25T15:14:47.443Z,2.47
2022-11-25T15:17:27.963Z,2.63
2022-11-25T15:19:57.884Z,3.00
2022-11-25T15:22:24.914Z,2.73
2022-11-25T15:24:55.941Z,2.57
2022-11-25T15:27:24.952Z,6.10
2022-11-25T15:29:52.663Z,3.97
2022-11-25T15:32:25.949Z,3.03
2022-11-25T15:34:54.388Z,2.43
2022-11-25T15:37:21.129Z,3.03
2022-11-25T15:39:47.940Z,2.13
2022-11-25T15:42:24.100Z,2.30
2022-11-25T15:45:05.199Z,2.30
2022-11-25T15:47:35.430Z,2.20
2022-11-25T15:50:27.566Z,2.73
2022-11-25T15:52:58.881Z,3.10
2022-11-25T15:55:36.668Z,3.23
2022-11-25T15:58:07.559Z,3.80
2022-11-25T16:00:34.234Z,3.23
2022-11-25T16:03:01.079Z,2.93
2022-11-25T16:05:31.854Z,2.73
2022-11-25T16:08:23.878Z,4.13
2022-11-25T16:10:59.443Z,3.27
2022-11-25T16:13:28.880Z,3.60
2022-11-25T16:16:07.968Z,5.10
2022-11-25T16:18:40.681Z,4.60
2022-11-25T16:21:21.082Z,3.57
2022-11-25T16:23:53.925Z,4.10
2022-11-25T16:26:33.500Z,3.90
2022-11-25T16:29:08.263Z,3.47
2022-11-25T16:31:34.986Z,3.07
2022-11-25T16:34:17.078Z,2.83
2022-11-25T16:36:43.703Z,3.83
2022-11-25T16:39:10.405Z,2.33
2022-11-25T16:41:37.909Z,2.77
2022-11-25T16:44:08.802Z,3.00
2022-11-25T16:46:35.723Z,3.90
2022-11-25T16:49:12.061Z,3.40
2022-11-25T16:51:38.742Z,3.13
2022-11-25T16:54:05.434Z,3.87
2022-11-25T16:56:33.957Z,3.13
2022-11-25T16:59:00.753Z,3.17
2022-11-25T17:01:28.382Z,3.80
2022-11-25T17:03:55.281Z,3.30
2022-11-25T17:06:24.684Z,4.07
2022-11-25T17:08:51.781Z,3.50
2022-11-25T17:11:32.396Z,3.97
2022-11-25T17:14:04.651Z,4.20
2022-11-25T17:16:31.564Z,4.03
2022-11-25T17:19:00.078Z,3.73
2022-11-25T17:21:28.641Z,13.13
2022-11-25T17:24:00.430Z,9.80
2022-11-25T17:26:38.677Z,6.97
2022-11-25T17:29:08.707Z,5.90
2022-11-25T17:31:37.823Z,5.90
2022-11-25T17:34:05.154Z,4.70
2022-11-25T17:36:31.839Z,4.20
2022-11-25T17:38:58.488Z,5.10
2022-11-25T17:41:26.779Z,3.60
2022-11-25T17:43:54.841Z,4.57
2022-11-25T17:46:21.694Z,4.50
2022-11-25T17:48:48.427Z,4.20
2022-11-25T17:51:15.357Z,5.77
2022-11-25T17:53:42.140Z,5.10
2022-11-25T17:56:24.539Z,5.90
2022-11-25T17:58:52.526Z,5.03
2022-11-25T18:01:19.839Z,5.27
2022-11-25T18:03:49.322Z,5.27
2022-11-25T18:06:15.962Z,4.37
2022-11-25T18:08:42.654Z,4.67
2022-11-25T18:11:16.839Z,4.93
2022-11-25T18:13:45.477Z,5.17
2022-11-25T18:16:13.332Z,4.83
2022-11-25T18:18:40.398Z,3.50
2022-11-25T18:21:07.045Z,3.97
2022-11-25T18:23:33.685Z,3.97
2022-11-25T18:26:01.667Z,4.37
2022-11-25T18:28:30.871Z,8.43
2022-11-25T18:31:02.368Z,9.80
2022-11-25T18:33:29.771Z,8.23
2022-11-25T18:35:56.896Z,7.47
2022-11-25T18:38:23.802Z,7.33
2022-11-25T18:40:53.904Z,7.17
2022-11-25T18:43:24.528Z,7.63
2022-11-25T18:45:52.347Z,6.20
2022-11-25T18:48:22.656Z,7.10
2022-11-25T18:50:50.974Z,8.13
2022-11-25T18:53:18.200Z,16.00
2022-11-25T18:55:45.688Z,12.03
2022-11-25T18:58:23.304Z,11.23
2022-11-25T19:00:51.660Z,10.33
2022-11-25T19:03:19.871Z,8.70
2022-11-25T19:05:47.615Z,9.33
2022-11-25T19:08:15.162Z,8.20
2022-11-25T19:10:44.339Z,8.03
2022-11-25T19:13:20.390Z,8.83
2022-11-25T19:18:28.270Z,10.40
2022-11-25T19:20:55.456Z,10.43
2022-11-25T19:23:28.689Z,10.27
2022-11-25T19:26:00.809Z,8.93
2022-11-25T19:28:29.321Z,9.40
2022-11-25T19:31:04.427Z,9.37
2022-11-25T19:33:34.910Z,8.07
2022-11-25T19:36:01.628Z,6.30
2022-11-25T19:38:29.644Z,6.03
2022-11-25T19:40:57.118Z,5.50
2022-11-25T19:43:26.913Z,5.00
2022-11-25T19:45:55.359Z,4.53
2022-11-25T19:48:24.859Z,4.30
2022-11-25T19:50:59.195Z,5.67
2022-11-25T19:53:31.807Z,4.70
2022-11-25T19:56:03.905Z,3.93
2022-11-25T19:58:30.937Z,4.40
2022-11-25T20:01:00.962Z,4.80
2022-11-25T20:03:30.638Z,4.87
2022-11-25T20:05:57.557Z,4.70
2022-11-25T20:08:26.931Z,4.77
2022-11-25T20:10:54.299Z,5.00
2022-11-25T20:13:22.970Z,4.00
2022-11-25T20:15:50.401Z,4.10
2022-11-25T20:18:20.438Z,3.57
2022-11-25T20:20:51.361Z,3.80
2022-11-25T20:23:29.278Z,3.97
2022-11-25T20:25:56.339Z,4.20
2022-11-25T20:28:29.985Z,3.83
2022-11-25T20:31:00.104Z,4.70
2022-11-25T20:33:27.385Z,4.70
2022-11-25T20:36:03.314Z,3.77
2022-11-25T20:38:32.375Z,3.60
2022-11-25T20:41:00.298Z,3.60
2022-11-25T20:43:32.886Z,4.40
2022-11-25T20:46:00.974Z,4.70
2022-11-25T20:48:28.712Z,5.73
2022-11-25T20:50:59.881Z,6.27
2022-11-25T20:53:27.938Z,4.80
2022-11-25T20:55:54.619Z,4.00
2022-11-25T20:58:30.585Z,4.03
2022-11-25T21:00:58.446Z,4.73
2022-11-25T21:03:26.386Z,4.23
2022-11-25T21:05:55.004Z,4.23
2022-11-25T21:08:24.189Z,4.90
2022-11-25T21:10:53.929Z,4.87
2022-11-25T21:13:29.194Z,4.70
2022-11-25T21:15:59.060Z,5.00
2022-11-25T21:18:25.779Z,5.37
2022-11-25T21:20:56.264Z,13.10
2022-11-25T21:23:33.777Z,14.17
2022-11-25T21:26:10.522Z,5.87
2022-11-25T21:28:42.211Z,5.53
2022-11-25T21:31:15.311Z,6.43
2022-11-25T21:33:42.500Z,9.80
2022-11-25T21:36:23.799Z,11.23
2022-11-25T21:38:52.785Z,11.27
2022-11-25T21:41:19.838Z,12.43
2022-11-25T21:43:49.251Z,12.53
2022-11-25T21:46:21.037Z,9.93
2022-11-25T21:48:48.543Z,8.80
2022-11-25T21:51:24.167Z,8.10
2022-11-25T21:53:51.786Z,6.93
2022-11-25T21:56:25.812Z,5.53
2022-11-25T21:58:52.900Z,6.60
2022-11-25T22:01:20.126Z,4.90
2022-11-25T22:03:46.921Z,4.40
2022-11-25T22:06:23.581Z,6.23
2022-11-25T22:08:50.862Z,4.67
2022-11-25T22:11:21.854Z,3.97
2022-11-25T22:13:49.193Z,4.67
2022-11-25T22:16:21.391Z,7.20
2022-11-25T22:18:48.395Z,9.97
2022-11-25T22:21:15.298Z,9.03
2022-11-25T22:23:42.885Z,6.10
2022-11-25T22:26:30.532Z,6.00
2022-11-25T22:28:57.816Z,5.53
2022-11-25T22:31:25.243Z,6.13
2022-11-25T22:33:52.158Z,6.23
2022-11-25T22:36:29.825Z,6.37
2022-11-25T22:39:15.828Z,6.93
2022-11-25T22:42:04.417Z,6.17
2022-11-25T22:44:50.380Z,5.77
2022-11-25T22:47:40.198Z,5.00
2022-11-25T22:50:18.319Z,12.90
2022-11-25T22:52:45.065Z,9.97
2022-11-25T22:55:14.674Z,7.90
2022-11-25T22:57:41.381Z,6.33
2022-11-25T23:00:10.741Z,7.80
2022-11-25T23:02:37.547Z,7.00
2022-11-25T23:05:19.406Z,5.40
2022-11-25T23:07:46.100Z,5.47
2022-11-25T23:10:18.860Z,5.40
2022-11-25T23:12:46.195Z,6.47
2022-11-25T23:15:14.987Z,4.90
2022-11-25T23:17:50.764Z,5.87
2022-11-25T23:20:24.120Z,5.63
2022-11-25T23:22:50.773Z,5.60
2022-11-25T23:25:20.188Z,7.00
2022-11-25T23:27:47.485Z,5.37
2022-11-25T23:30:19.613Z,5.97
2022-11-25T23:32:49.899Z,5.30
2022-11-25T23:35:19.419Z,5.97
2022-11-25T23:37:53.040Z,5.70
2022-11-25T23:40:22.075Z,4.40
2022-11-25T23:42:49.254Z,5.73
2022-11-25T23:45:18.427Z,5.50
2022-11-25T23:47:47.187Z,6.87
2022-11-25T23:50:34.149Z,5.97
2022-11-25T23:53:04.347Z,6.00
2022-11-25T23:55:35.539Z,6.47
2022-11-25T23:58:04.256Z,6.33
